Flight Track Log - Related Links

Times and Time Zones

All times are in EDT time to prevent confusion due to time zone crossing. See the C-GMYJ flight status page for this flight to view local times or setup timezone preferences in your user account.

Time Position Orientation Groundspeed Altitude Reporting Facility
EDT Latitude Longitude Course Direction KTS MPH feet Rate Location/Type
Thu 01:16:25 PM 48.7200 -113.0844 278° West 114 131 11,800  Level Salt Lake Center
Thu 01:17:27 PM 48.7242 -113.1311 278° West 114 131 12,200 387 Climbing Salt Lake Center
Thu 01:18:29 PM 48.7317 -113.1864 282° West 112 129 12,600 339 Climbing Salt Lake Center
Thu 01:19:31 PM 48.7364 -113.2314 279° West 111 128 12,900 244 Climbing Salt Lake Center
Thu 01:20:32 PM 48.7408 -113.2767 278° West 110 127 13,100 244 Climbing Salt Lake Center
Thu 01:21:34 PM 48.7450 -113.3231 278° West 110 127 13,400 339 Climbing Salt Lake Center
Thu 01:22:36 PM 48.7492 -113.3686 278° West 110 127 13,800 194 Climbing Salt Lake Center
Thu 01:23:38 PM 48.7525 -113.4133 276° West 109 125 13,800 48 Level Salt Lake Center
Thu 01:24:40 PM 48.7556 -113.4711 275° West 111 128 13,900 48 Climbing Salt Lake Center
Thu 01:25:42 PM 48.7589 -113.5228 276° West 116 133 13,900 -48 Level Salt Lake Center
Thu 01:26:44 PM 48.7636 -113.5753 278° West 120 138 13,800 -48 Descending Salt Lake Center
Thu 01:27:46 PM 48.7697 -113.6297 280° West 125 144 13,800 48 Level Salt Lake Center
Thu 01:28:48 PM 48.7747 -113.6831 278° West 127 146 13,900  Climbing Salt Lake Center
Thu 01:29:50 PM 48.7789 -113.7350 277° West 127 146 13,800 -48 Descending Salt Lake Center
Thu 01:30:52 PM 48.7856 -113.7992 279° West 128 147 13,800  Level Salt Lake Center
Thu 01:31:54 PM 48.7886 -113.8528 275° West 128 147 13,800 48 Level Salt Lake Center
Thu 01:32:56 PM 48.7950 -113.9061 280° West 129 148 13,900 48 Climbing Salt Lake Center
Thu 01:33:58 PM 48.7989 -113.9594 276° West 128 147 13,900  Level Salt Lake Center
Thu 01:35:00 PM 48.8047 -114.0111 280° West 127 146 13,900  Level Salt Lake Center
Thu 01:36:02 PM 48.8119 -114.0750 280° West 128 147 13,900 -48 Level Salt Lake Center
Thu 01:37:04 PM 48.8167 -114.1286 278° West 128 147 13,800 -32 Descending Salt Lake Center
Thu 01:39:12 PM 48.8242 -114.2361 276° West 128 147 13,800 -32 Level Seattle Center
Thu 01:40:10 PM 48.8297 -114.2886 279° West 128 147 13,700  Descending Salt Lake Center
Thu 01:41:12 PM 48.8358 -114.3414 280° West 128 147 13,800 48 Climbing Salt Lake Center
Thu 01:42:14 PM 48.8400 -114.4025 276° West 125 144 13,800  Level Salt Lake Center
Thu 01:43:16 PM 48.8431 -114.4547 275° West 124 143 13,800  Level Salt Lake Center
Thu 01:44:18 PM 48.8464 -114.5086 275° West 126 145 13,800 48 Level Salt Lake Center
Thu 01:45:20 PM 48.8494 -114.5622 275° West 127 146 13,900 48 Climbing Salt Lake Center
Thu 01:46:22 PM 48.8542 -114.6147 278° West 126 145 13,900  Level Salt Lake Center
Thu 01:47:22 PM 48.8575 -114.6667 276° West 125 144 13,900 49 Level Seattle Center
Thu 01:48:24 PM 48.8631 -114.7208 279° West 128 147 14,000  Climbing Seattle Center
Thu 01:49:29 PM 48.8697 -114.7839 279° West 126 145 13,900  Descending Salt Lake Center
Thu 01:50:31 PM 48.8742 -114.8356 277° West 126 145 14,000  Climbing Salt Lake Center
Thu 01:51:33 PM 48.8800 -114.8872 280° West 124 143 13,900 -48 Descending Salt Lake Center
Thu 01:52:35 PM 48.8864 -114.9392 281° West 125 144 13,900  Level Salt Lake Center
Thu 01:53:30 PM 48.8900 -114.9931 276° West 127 146 13,900  Level Seattle Center
Thu 01:54:31 PM 48.8933 -115.0467 275° West 128 147 13,900  Level Seattle Center
Thu 01:55:32 PM 48.8969 -115.1006 276° West 129 148 13,900 -98 Level Seattle Center
Thu 01:56:34 PM 48.9019 -115.1544 278° West 129 148 13,700 -244 Descending Seattle Center
Thu 01:57:35 PM 48.9069 -115.2142 277° West 138 159 13,400 -295 Descending Seattle Center
Thu 01:58:36 PM 48.9106 -115.2753 275° West 144 166 13,100 -344 Descending Seattle Center
Thu 01:59:37 PM 48.9139 -115.3500 274° West 148 170 12,700 -341 Descending Seattle Center
Thu 02:00:39 PM 48.9183 -115.4133 276° West 150 173 12,400 -293 Descending Seattle Center
Thu 02:01:40 PM 48.9239 -115.4789 277° West 154 177 12,100 -197 Descending Seattle Center
Thu 02:02:41 PM 48.9286 -115.5417 277° West 153 176 12,000 -98 Descending Seattle Center
Thu 02:03:43 PM 48.9333 -115.6019 277° West 146 168 11,900 -98 Descending Seattle Center
Thu 02:04:44 PM 48.9378 -115.6600 277° West 141 162 11,800  Descending Seattle Center
Thu 02:05:45 PM 48.9425 -115.7158 277° West 136 157 11,900 170 Climbing Seattle Center
Thu 02:06:30 PM 48.9333 -115.7333 231° Southwest 140 161 12,100 171 Climbing Vancouver Center
Thu 02:07:30 PM 48.9333 -115.7833 270° West 140 161 12,200  Climbing Vancouver Center
Thu 02:08:30 PM 48.9333 -115.8333 270° West 140 161 12,100 -100 Descending Vancouver Center
Thu 02:09:30 PM 48.9500 -115.9167 287° West 140 161 12,000 -100 Descending Vancouver Center
Thu 02:10:30 PM 48.9500 -115.9667 270° West 140 161 11,900 -100 Descending Vancouver Center
Thu 02:11:30 PM 48.9500 -116.0167 270° West 140 161 11,800 -50 Descending Vancouver Center
Thu 02:12:30 PM 48.9667 -116.0833 291° West 140 161 11,800 50 Level Vancouver Center
Thu 02:13:30 PM 48.9667 -116.1333 270° West 140 161 11,900 100 Climbing Vancouver Center
Thu 02:14:30 PM 48.9667 -116.1833 270° West 140 161 12,000  Climbing Vancouver Center
Thu 02:15:30 PM 48.9667 -116.2667 270° West 140 161 11,900 -50 Descending Vancouver Center
Thu 02:16:30 PM 48.9500 -116.3167 243° Southwest 140 161 11,900  Level Vancouver Center
Thu 02:17:30 PM 48.9667 -116.3667 297° West 140 161 11,900  Level Vancouver Center
Thu 02:18:30 PM 48.9667 -116.4167 270° West 140 161 11,900 50 Level Vancouver Center
Thu 02:19:30 PM 48.9667 -116.5000 270° West 140 161 12,000  Climbing Vancouver Center
Thu 02:20:30 PM 48.9667 -116.5500 270° West 140 161 11,900 -50 Descending Vancouver Center
Thu 02:21:30 PM 48.9833 -116.6000 297° West 140 161 11,900  Level Vancouver Center
Thu 02:22:30 PM 48.9833 -116.6667 270° West 140 161 11,900  Level Vancouver Center
Thu 02:23:30 PM 48.9833 -116.7167 270° West 140 161 11,900  Level Vancouver Center
Thu 02:24:30 PM 48.9833 -116.7667 270° West 140 161 11,900  Level Vancouver Center
Thu 02:25:30 PM 49.0000 -116.8167 297° West 140 161 11,900  Level Vancouver Center
Thu 02:26:30 PM 49.0167 -116.8667 297° West 130 150 11,900 -50 Level Vancouver Center
Thu 02:27:30 PM 49.0167 -116.9500 270° West 160 184 11,800 50 Descending Vancouver Center
Thu 02:28:30 PM 49.0167 -117.0000 270° West 140 161 12,000 100 Climbing Vancouver Center
Thu 02:29:30 PM 49.0333 -117.0500 297° West 120 138 12,000  Level Vancouver Center
Thu 02:30:30 PM 49.0333 -117.1167 270° West 140 161 12,000 -50 Level Vancouver Center
Thu 02:31:30 PM 49.0500 -117.1667 297° West 150 173 11,900 -50 Descending Vancouver Center
Thu 02:32:30 PM 49.0500 -117.2167 270° West 140 161 11,900 -50 Level Vancouver Center
Thu 02:33:30 PM 49.0667 -117.3000 287° West 140 161 11,800 -50 Descending Vancouver Center
Thu 02:34:30 PM 49.0667 -117.3500 270° West 140 161 11,800  Level Vancouver Center
Thu 02:35:30 PM 49.0833 -117.4167 291° West 140 161 11,800 50 Level Vancouver Center
Thu 02:36:30 PM 49.1000 -117.4667 297° West 140 161 11,900 50 Climbing Vancouver Center
Thu 02:37:30 PM 49.1000 -117.5167 270° West 140 161 11,900  Level Vancouver Center
Thu 02:38:30 PM 49.1000 -117.6000 270° West 140 161 11,900  Level Vancouver Center
Thu 02:39:30 PM 49.1000 -117.6500 270° West 140 161 11,900  Level Vancouver Center
Thu 02:40:30 PM 49.1167 -117.7000 297° West 140 161 11,900  Level Vancouver Center
Thu 02:41:30 PM 49.1333 -117.7833 287° West 140 161 11,900  Level Vancouver Center
Thu 02:42:30 PM 49.1333 -117.8333 270° West 150 173 11,900 -50 Level Vancouver Center
Thu 02:43:30 PM 49.1333 -117.9000 270° West 140 161 11,800 -50 Descending Vancouver Center
Thu 02:44:30 PM 49.1333 -117.9500 270° West 140 161 11,800  Level Vancouver Center
Thu 02:45:30 PM 49.1333 -118.0000 270° West 140 161 11,800 50 Level Vancouver Center
Thu 02:46:30 PM 49.1500 -118.0833 287° West 140 161 11,900  Climbing Vancouver Center
Thu 02:47:30 PM 49.1667 -118.1333 297° West 140 161 11,800  Descending Vancouver Center
Thu 02:48:30 PM 49.1667 -118.2000 270° West 140 161 11,900 50 Climbing Vancouver Center
Thu 02:49:30 PM 49.1667 -118.2500 270° West 150 173 11,900  Level Vancouver Center
Thu 02:50:30 PM 49.1667 -118.3000 270° West 140 161 11,900  Level Vancouver Center
Thu 02:51:30 PM 49.1833 -118.3833 287° West 140 161 11,900  Level Vancouver Center
Thu 02:52:30 PM 49.2000 -118.4333 297° West 140 161 11,900  Level Vancouver Center
Thu 02:53:30 PM 49.2000 -118.5167 270° West 140 161 11,900  Level Vancouver Center
Thu 02:54:30 PM 49.2000 -118.5667 270° West 140 161 11,900  Level Vancouver Center
Thu 02:55:30 PM 49.2000 -118.6167 270° West 140 161 11,900  Level Vancouver Center
Thu 02:56:30 PM 49.2167 -118.6833 291° West 140 161 11,900  Level Vancouver Center
Thu 02:57:30 PM 49.2333 -118.7333 297° West 140 161 11,900  Level Vancouver Center
Thu 02:58:30 PM 49.2333 -118.7833 270° West 140 161 11,900  Level Vancouver Center
Thu 02:59:30 PM 49.2500 -118.8667 287° West 150 173 11,900  Level Vancouver Center
Thu 03:00:30 PM 49.2500 -118.9167 270° West 140 161 11,900  Level Vancouver Center
Thu 03:01:30 PM 49.2500 -118.9833 270° West 140 161 11,900 -50 Level Vancouver Center
Thu 03:02:30 PM 49.2500 -119.0333 270° West 150 173 11,800  Descending Vancouver Center
Thu 03:03:30 PM 49.2500 -119.0833 270° West 140 161 11,900 100 Climbing Vancouver Center
Thu 03:04:30 PM 49.2667 -119.1667 287° West 140 161 12,000  Climbing Vancouver Center
Thu 03:05:30 PM 49.2667 -119.2167 270° West 150 173 11,900 -100 Descending Vancouver Center
Thu 03:06:30 PM 49.2667 -119.3000 270° West 150 173 11,800 -50 Descending Vancouver Center
Thu 03:07:30 PM 49.2667 -119.3500 270° West 150 173 11,800  Level Vancouver Center
Thu 03:08:30 PM 49.2667 -119.4167 270° West 150 173 11,800 50 Level Vancouver Center
Thu 03:09:30 PM 49.2667 -119.4667 270° West 140 161 11,900 50 Climbing Vancouver Center
Thu 03:10:30 PM 49.2667 -119.5333 270° West 140 161 11,900  Level Vancouver Center
Thu 03:11:30 PM 49.2833 -119.6000 291° West 140 161 11,900 50 Level Vancouver Center
Thu 03:12:30 PM 49.3000 -119.6500 297° West 140 161 12,000  Climbing Vancouver Center
Thu 03:13:30 PM 49.3000 -119.7333 270° West 140 161 11,900 -50 Descending Vancouver Center
Thu 03:14:30 PM 49.3000 -119.7833 270° West 150 173 11,900  Level Vancouver Center
Thu 03:15:30 PM 49.3000 -119.8500 270° West 150 173 11,900 -50 Level Vancouver Center
Thu 03:16:30 PM 49.3000 -119.9000 270° West 150 173 11,800  Descending Vancouver Center
Thu 03:17:30 PM 49.3000 -119.9500 270° West 140 161 11,900 50 Climbing Vancouver Center
Thu 03:18:30 PM 49.3167 -120.0333 287° West 140 161 11,900 -50 Level Vancouver Center
Thu 03:19:30 PM 49.3167 -120.0833 270° West 150 173 11,800  Descending Vancouver Center
Thu 03:20:30 PM 49.3167 -120.1333 270° West 140 161 11,900 50 Climbing Vancouver Center
Thu 03:21:30 PM 49.3167 -120.2167 270° West 140 161 11,900  Level Vancouver Center
Thu 03:22:30 PM 49.3167 -120.2667 270° West 140 161 11,900 -33 Level Vancouver Center
Thu 03:24:30 PM 49.3167 -120.4000 270° West 140 161 11,800  Descending Vancouver Center
Thu 03:25:30 PM 49.3167 -120.4500 270° West 140 161 11,900 50 Climbing Vancouver Center
Thu 03:26:30 PM 49.3333 -120.5000 297° West 140 161 11,900  Level Vancouver Center
Thu 03:27:30 PM 49.3500 -120.5667 291° West 140 161 11,900  Level Vancouver Center
Thu 03:28:30 PM 49.3500 -120.6167 270° West 140 161 11,900 50 Level Vancouver Center
Thu 03:29:30 PM 49.3500 -120.7000 270° West 140 161 12,000 50 Climbing Vancouver Center
Thu 03:30:30 PM 49.3500 -120.7500 270° West 140 161 12,000  Level Vancouver Center
Thu 03:31:30 PM 49.3500 -120.8000 270° West 140 161 12,000  Level Vancouver Center
Thu 03:32:30 PM 49.3500 -120.8500 270° West 140 161 12,000  Level Vancouver Center
Thu 03:33:30 PM 49.3500 -120.9333 270° West 150 173 12,000  Level Vancouver Center
Thu 03:34:30 PM 49.3500 -120.9833 270° West 140 161 12,000  Level Vancouver Center
Thu 03:35:30 PM 49.3500 -121.0500 270° West 140 161 12,000 -50 Level Vancouver Center
Thu 03:36:30 PM 49.3500 -121.1000 270° West 140 161 11,900  Descending Vancouver Center
Thu 03:37:30 PM 49.3500 -121.1667 270° West 140 161 12,000 50 Climbing Vancouver Center
Thu 03:38:30 PM 49.3833 -121.2333 308° West 140 161 12,000 -200 Level Vancouver Center
Thu 03:39:30 PM 49.3667 -121.2833 243° Southwest 150 173 11,600 -500 Descending Vancouver Center
Thu 03:40:30 PM 49.3833 -121.3667 287° West 160 184 11,000 -450 Descending Vancouver Center
Thu 03:41:30 PM 49.3833 -121.4333 270° West 160 184 10,700 -400 Descending Vancouver Center
Thu 03:42:30 PM 49.3667 -121.5000 249° West 160 184 10,200 -500 Descending Vancouver Center
Thu 03:43:30 PM 49.3500 -121.5667 249° West 160 184 9,700 -450 Descending Vancouver Center
Thu 03:44:30 PM 49.3333 -121.6167 243° Southwest 160 184 9,300 -350 Descending Vancouver Center
Thu 03:45:30 PM 49.3333 -121.7000 270° West 160 184 9,000 -200 Descending Vancouver Center
Thu 03:46:30 PM 49.3167 -121.7500 243° Southwest 150 173 8,900 -50 Descending Vancouver Center
Thu 03:47:30 PM 49.3000 -121.8000 243° Southwest 150 173 8,900 -50 Level Vancouver Center
Thu 03:48:30 PM 49.2667 -121.8500 224° Southwest 150 173 8,800 -300 Descending Vancouver Center
Thu 03:49:30 PM 49.2333 -121.8833 213° Southwest 160 184 8,300 -450 Descending Vancouver Center
Thu 03:50:30 PM 49.2000 -121.9333 224° Southwest 160 184 7,900 -450 Descending Vancouver Center
Thu 03:51:30 PM 49.1667 -121.9833 224° Southwest 160 184 7,400 -450 Descending Vancouver Center
Thu 03:52:30 PM 49.1333 -122.0333 224° Southwest 160 184 7,000 -400 Descending Vancouver Center
Thu 03:53:30 PM 49.0833 -122.0667 204° Southwest 160 184 6,600 -700 Descending Vancouver Center
Thu 03:54:30 PM 49.0667 -122.1167 243° Southwest 160 184 5,600 -950 Descending Vancouver Center
Thu 03:55:30 PM 49.0333 -122.1500 213° Southwest 160 184 4,700 -900 Descending Vancouver Center
Thu 03:56:30 PM 49.0167 -122.2000 243° Southwest 130 150 3,800 -850 Descending Vancouver Center
Thu 03:57:30 PM 49.0333 -122.1500 63° Northeast 120 138 3,000 -750 Descending Vancouver Center
Thu 03:58:30 PM 49.0167 -122.1667 213° Southwest 110 127 2,300 -650 Descending Vancouver Center
Thu 03:59:30 PM 49.0167 -122.2500 270° West 120 138 1,700 -600 Descending Vancouver Center
Thu 04:00:30 PM 49.0167 -122.2667 270° West 100 115 1,100 -550 Descending Vancouver Center
Thu 04:01:30 PM 49.0167 -122.3167 270° West 90 104 600 -500 Descending Vancouver Center

Login

Don't have an account? Register now (free) for customized features, flight alerts, and more!